Time;durP1;ratioP1;P1;durP2;ratioP2;P2;SDS_P1;SDS_P2;PMS_P1;PMS_P2;Temp;Humidity;BMP_temperature;BMP_pressure;BME280_temperature;BME280_humidity;BME280_pressure;Samples;Min_cycle;Max_cycle;Signal;HPM_P1;HPM_P2
2023/03/22 00:00:39;;;;;;;;;;;;;;;2.99;95.92;97176.02;110119;1244;71934;-69
2023/03/22 00:03:19;;;;;;;;;;;;;;;3.00;96.07;97174.08;110014;1242;69666;-70
2023/03/22 00:05:48;;;;;;;;;;;;;;;2.97;96.33;97174.58;110063;1245;69160;-70
2023/03/22 00:08:18;;;;;;;;;;;;;;;2.94;100.00;97174.22;110143;1242;59753;-69
2023/03/22 00:10:48;;;;;;;;;;;;;;;2.88;99.90;97170.72;109980;1244;59743;-69
2023/03/22 00:13:17;;;;;;;;;;;;;;;2.86;98.55;97170.46;110069;1244;72361;-69
2023/03/22 00:15:47;;;;;;;;;;;;;;;2.87;97.90;97171.80;110215;1244;69232;-70
2023/03/22 00:18:18;;;;;;;;;;;;;;;2.89;99.46;97170.48;109908;1244;68655;-70
2023/03/22 00:20:49;;;;;;;;;;;;;;;2.89;98.64;97168.27;109965;1244;59719;-70
2023/03/22 00:23:19;;;;;;;;;;;;;;;2.89;99.42;97166.53;109930;1245;59685;-70
2023/03/22 00:25:48;;;;;;;;;;;;;;;2.87;99.53;97165.09;109878;1242;71293;-70
2023/03/22 00:28:18;;;;;;;;;;;;;;;2.87;98.77;97164.40;110081;1244;69305;-70
2023/03/22 00:30:52;;;;;;;;;;;;;;;2.89;99.73;97164.63;110021;1245;69899;-70
2023/03/22 00:33:21;;;;;;;;;;;;;;;2.92;100.00;97161.23;110094;1245;59676;-70
2023/03/22 00:35:52;;;;;;;;;;;;;;;2.95;100.00;97162.80;110069;1245;59719;-70
2023/03/22 00:38:23;;;;;;;;;;;;;;;2.94;100.00;97156.98;109925;1243;71292;-70
2023/03/22 00:41:14;;;;;;;;;;;;;;;2.93;100.00;97158.09;109896;1244;69585;-70
2023/03/22 00:43:45;;;;;;;;;;;;;;;2.90;100.00;97163.56;109797;1243;69116;-70
2023/03/22 00:46:16;;;;;;;;;;;;;;;2.86;100.00;97163.58;110173;1245;59754;-70
2023/03/22 00:48:46;;;;;;;;;;;;;;;2.82;100.00;97160.33;109845;1244;59787;-70
2023/03/22 00:51:16;;;;;;;;;;;;;;;2.79;100.00;97160.98;110077;1243;70641;-70
2023/03/22 00:53:49;;;;;;;;;;;;;;;2.74;100.00;97163.77;110013;1243;68473;-70
2023/03/22 00:56:21;;;;;;;;;;;;;;;2.69;100.00;97159.36;109846;1248;68527;-69
2023/03/22 00:58:59;;;;;;;;;;;;;;;2.66;100.00;97158.48;109833;1244;59779;-69
2023/03/22 01:01:29;;;;;;;;;;;;;;;2.61;100.00;97158.52;109780;1246;59695;-69
2023/03/22 01:04:04;;;;;;;;;;;;;;;2.55;100.00;97156.88;110134;1245;71384;-69
2023/03/22 01:06:35;;;;;;;;;;;;;;;2.51;100.00;97156.20;110119;1242;68408;-69
2023/03/22 01:09:13;;;;;;;;;;;;;;;2.46;100.00;97151.95;109880;1244;68514;-70
2023/03/22 01:11:45;;;;;;;;;;;;;;;2.42;100.00;97153.69;110135;1245;59701;-69
2023/03/22 01:14:18;;;;;;;;;;;;;;;2.39;100.00;97154.14;110192;1245;59848;-71
2023/03/22 01:16:49;;;;;;;;;;;;;;;2.37;100.00;97153.22;110122;1244;70714;-70
2023/03/22 01:19:23;;;;;;;;;;;;;;;2.36;100.00;97155.83;110144;1244;68401;-71
2023/03/22 01:21:54;;;;;;;;;;;;;;;2.35;100.00;97152.26;109814;1244;68341;-71
2023/03/22 01:24:25;;;;;;;;;;;;;;;2.35;100.00;97151.59;109898;1244;59754;-70
2023/03/22 01:26:56;;;;;;;;;;;;;;;2.36;100.00;97150.00;109900;1246;59680;-69
2023/03/22 01:29:27;;;;;;;;;;;;;;;2.37;100.00;97150.97;109877;1244;70915;-69
2023/03/22 01:31:57;;;;;;;;;;;;;;;2.40;100.00;97146.73;110017;1244;68066;-70
2023/03/22 01:34:27;;;;;;;;;;;;;;;2.42;100.00;97142.70;109806;1245;69172;-70
2023/03/22 01:36:59;;;;;;;;;;;;;;;2.40;100.00;97139.48;110062;1243;60095;-69
2023/03/22 01:39:31;;;;;;;;;;;;;;;2.36;100.00;97133.63;110020;1245;59644;-69
2023/03/22 01:42:09;;;;;;;;;;;;;;;2.33;100.00;97127.09;109922;1245;71829;-70
2023/03/22 01:45:06;;;;;;;;;;;;;;;2.30;100.00;97128.54;110241;1244;68268;-69
2023/03/22 01:47:55;;;;;;;;;;;;;;;2.29;100.00;97128.29;110137;1245;68622;-70
2023/03/22 01:50:27;;;;;;;;;;;;;;;2.27;100.00;97132.30;110174;1245;59744;-70
2023/03/22 01:53:03;;;;;;;;;;;;;;;2.24;100.00;97126.25;110125;1245;59795;-70
2023/03/22 01:55:38;;;;;;;;;;;;;;;2.23;100.00;97125.63;109840;1245;71352;-69
2023/03/22 01:58:19;;;;;;;;;;;;;;;2.21;100.00;97122.61;110110;1244;69695;-69
2023/03/22 02:00:54;;;;;;;;;;;;;;;2.19;100.00;97121.84;109837;1244;69379;-69
2023/03/22 02:03:56;;;;;;;;;;;;;;;2.17;100.00;97116.60;109797;1244;59706;-69
2023/03/22 02:06:31;;;;;;;;;;;;;;;2.17;100.00;97119.18;109870;1243;59738;-69
2023/03/22 02:09:08;;;;;;;;;;;;;;;2.14;100.00;97120.36;110045;1244;70628;-68
2023/03/22 02:11:45;;;;;;;;;;;;;;;2.08;100.00;97118.23;109764;1247;69254;-69
2023/03/22 02:14:36;;;;;;;;;;;;;;;2.02;100.00;97117.22;109829;1242;69182;-70
2023/03/22 02:17:51;;;;;;;;;;;;;;;1.97;100.00;97112.98;109791;1242;59679;-69
2023/03/22 02:20:56;;;;;;;;;;;;;;;1.92;100.00;97119.09;109774;1243;59707;-69
2023/03/22 02:23:34;;;;;;;;;;;;;;;1.87;100.00;97126.16;110123;1246;71412;-69
2023/03/22 02:26:20;;;;;;;;;;;;;;;1.79;100.00;97125.45;109861;1245;69338;-70
2023/03/22 02:28:58;;;;;;;;;;;;;;;1.70;100.00;97127.55;109922;1246;69281;-70
2023/03/22 02:31:40;;;;;;;;;;;;;;;1.63;100.00;97129.23;110220;1244;59731;-70
2023/03/22 02:34:17;;;;;;;;;;;;;;;1.56;100.00;97126.23;110137;1244;59679;-70
2023/03/22 02:37:03;;;;;;;;;;;;;;;1.47;100.00;97128.02;109826;1245;71527;-70
2023/03/22 02:39:35;;;;;;;;;;;;;;;1.40;100.00;97126.89;110134;1244;69227;-71
2023/03/22 02:42:07;;;;;;;;;;;;;;;1.36;100.00;97123.27;109883;1245;67821;-70
2023/03/22 02:44:44;;;;;;;;;;;;;;;1.35;100.00;97127.45;110062;1248;59734;-70
2023/03/22 02:47:23;;;;;;;;;;;;;;;1.37;100.00;97124.45;110098;1244;59691;-70
2023/03/22 02:49:57;;;;;;;;;;;;;;;1.40;100.00;97127.94;110125;1244;71333;-70
2023/03/22 02:52:38;;;;;;;;;;;;;;;1.44;100.00;97134.64;110116;1245;69563;-70
2023/03/22 02:55:26;;;;;;;;;;;;;;;1.49;100.00;97138.22;110092;1245;69118;-70
2023/03/22 02:58:21;;;;;;;;;;;;;;;1.48;100.00;97139.46;109853;1245;59685;-69
2023/03/22 03:00:53;;;;;;;;;;;;;;;1.46;100.00;97140.92;110001;1245;59677;-70
2023/03/22 03:03:28;;;;;;;;;;;;;;;1.41;100.00;97141.60;110088;1244;71340;-70
2023/03/22 03:06:07;;;;;;;;;;;;;;;1.38;100.00;97145.19;110100;1245;68689;-70
2023/03/22 03:08:39;;;;;;;;;;;;;;;1.34;100.00;97145.17;110131;1244;69324;-70
2023/03/22 03:11:11;;;;;;;;;;;;;;;1.29;100.00;97142.11;109802;1244;59702;-70
2023/03/22 03:13:46;;;;;;;;;;;;;;;1.26;100.00;97140.85;110104;1245;59676;-69
2023/03/22 03:16:19;;;;;;;;;;;;;;;1.24;100.00;97137.65;110087;1244;70593;-69
2023/03/22 03:19:08;;;;;;;;;;;;;;;1.23;100.00;97143.38;109987;1244;69630;-70
2023/03/22 03:21:41;;;;;;;;;;;;;;;1.22;100.00;97141.90;109885;1244;68486;-70
2023/03/22 03:24:20;;;;;;;;;;;;;;;1.19;100.00;97141.32;110009;1243;59819;-69
2023/03/22 03:27:09;;;;;;;;;;;;;;;1.18;100.00;97146.68;109914;1244;59714;-70
2023/03/22 03:29:58;;;;;;;;;;;;;;;1.18;100.00;97148.73;109912;1248;71988;-70
2023/03/22 03:32:40;;;;;;;;;;;;;;;1.18;100.00;97149.94;109840;1244;68978;-70
2023/03/22 03:35:21;;;;;;;;;;;;;;;1.18;100.00;97151.98;109777;1245;69549;-70
2023/03/22 03:38:00;;;;;;;;;;;;;;;1.17;100.00;97152.88;110123;1245;59709;-70
2023/03/22 03:40:34;;;;;;;;;;;;;;;1.19;100.00;97152.31;110103;1245;60128;-70
2023/03/22 03:43:07;;;;;;;;;;;;;;;1.18;100.00;97156.45;110100;1244;71247;-70
2023/03/22 03:45:37;;;;;;;;;;;;;;;1.18;100.00;97153.71;110142;1244;68759;-69
2023/03/22 03:48:10;;;;;;;;;;;;;;;1.17;100.00;97155.45;110136;1244;69722;-70
2023/03/22 03:50:40;;;;;;;;;;;;;;;1.15;100.00;97158.30;110142;1244;59715;-70
2023/03/22 03:53:11;;;;;;;;;;;;;;;1.13;100.00;97158.54;110183;1245;59701;-70
2023/03/22 03:55:41;;;;;;;;;;;;;;;1.13;100.00;97158.55;110081;1244;71845;-70
2023/03/22 03:58:14;;;;;;;;;;;;;;;1.14;100.00;97162.63;109723;1244;69741;-70
2023/03/22 04:00:46;;;;;;;;;;;;;;;1.12;100.00;97162.71;109924;1244;68522;-69
2023/03/22 04:03:32;;;;;;;;;;;;;;;1.12;100.00;97169.41;109877;1245;59730;-70
2023/03/22 04:06:02;;;;;;;;;;;;;;;1.09;100.00;97169.36;110109;1243;59695;-71
2023/03/22 04:08:35;;;;;;;;;;;;;;;1.04;100.00;97170.06;110119;1244;71776;-70
2023/03/22 04:11:05;;;;;;;;;;;;;;;0.99;100.00;97172.65;110010;1245;69252;-68
2023/03/22 04:13:38;;;;;;;;;;;;;;;0.95;100.00;97177.91;109817;1245;69726;-70
2023/03/22 04:16:11;;;;;;;;;;;;;;;0.96;100.00;97179.79;110083;1245;59672;-68
2023/03/22 04:18:41;;;;;;;;;;;;;;;0.96;100.00;97182.34;110087;1244;59696;-70
2023/03/22 04:21:15;;;;;;;;;;;;;;;0.98;100.00;97184.00;110115;1245;70796;-70
2023/03/22 04:23:54;;;;;;;;;;;;;;;1.00;100.00;97188.91;110167;1244;69222;-70
2023/03/22 04:26:24;;;;;;;;;;;;;;;0.98;100.00;97189.82;110048;1242;69694;-70
2023/03/22 04:29:08;;;;;;;;;;;;;;;0.94;100.00;97188.44;110187;1245;59769;-69
2023/03/22 04:31:39;;;;;;;;;;;;;;;0.91;100.00;97191.30;110068;1246;59685;-70
2023/03/22 04:34:20;;;;;;;;;;;;;;;0.88;100.00;97194.86;109939;1244;72323;-70
2023/03/22 04:36:53;;;;;;;;;;;;;;;0.88;100.00;97194.67;110134;1245;69205;-70
2023/03/22 04:39:29;;;;;;;;;;;;;;;0.88;100.00;97196.75;110255;1245;69537;-70
2023/03/22 04:42:16;;;;;;;;;;;;;;;0.86;100.00;97203.13;110125;1245;59687;-70
2023/03/22 04:44:45;;;;;;;;;;;;;;;0.85;100.00;97211.80;110020;1244;59697;-71
2023/03/22 04:47:15;;;;;;;;;;;;;;;0.81;100.00;97215.02;110115;1242;70560;-69
2023/03/22 04:49:44;;;;;;;;;;;;;;;0.78;100.00;97215.48;109986;1242;68724;-69
2023/03/22 04:52:15;;;;;;;;;;;;;;;0.77;100.00;97215.17;110038;1244;69165;-70
2023/03/22 04:54:52;;;;;;;;;;;;;;;0.73;100.00;97218.90;110074;1245;59750;-69
2023/03/22 04:57:23;;;;;;;;;;;;;;;0.71;100.00;97221.39;110119;1244;60105;-70
2023/03/22 04:59:53;;;;;;;;;;;;;;;0.71;100.00;97228.77;109990;1244;70669;-70
2023/03/22 05:02:21;;;;;;;;;;;;;;;0.72;100.00;97224.95;109946;1245;69872;-70
2023/03/22 05:04:50;;;;;;;;;;;;;;;0.72;100.00;97227.34;110107;1245;69285;-70
2023/03/22 05:07:31;;;;;;;;;;;;;;;0.71;100.00;97230.13;110086;1243;60132;-69
2023/03/22 05:10:01;;;;;;;;;;;;;;;0.73;100.00;97230.76;110043;1245;60088;-70
2023/03/22 05:12:30;;;;;;;;;;;;;;;0.75;100.00;97229.80;110004;1245;72394;-69
2023/03/22 05:15:14;;;;;;;;;;;;;;;0.80;100.00;97229.96;110086;1242;69834;-69
2023/03/22 05:17:44;;;;;;;;;;;;;;;0.86;100.00;97233.88;110101;1245;69869;-70
2023/03/22 05:20:13;;;;;;;;;;;;;;;0.89;100.00;97233.91;110080;1244;59753;-70
2023/03/22 05:22:49;;;;;;;;;;;;;;;0.91;100.00;97234.20;110142;1245;59633;-71
2023/03/22 05:25:18;;;;;;;;;;;;;;;0.93;100.00;97234.13;110079;1245;72218;-70
2023/03/22 05:27:49;;;;;;;;;;;;;;;0.95;100.00;97237.33;110093;1245;68547;-70
2023/03/22 05:30:41;;;;;;;;;;;;;;;0.98;100.00;97239.40;109985;1245;69610;-70
2023/03/22 05:33:21;;;;;;;;;;;;;;;1.04;100.00;97240.05;110004;1245;59684;-70
2023/03/22 05:35:53;;;;;;;;;;;;;;;1.07;100.00;97243.76;109903;1244;59786;-69
2023/03/22 05:38:23;;;;;;;;;;;;;;;1.10;100.00;97245.16;110127;1245;71439;-70
2023/03/22 05:40:54;;;;;;;;;;;;;;;1.16;100.00;97244.77;109820;1248;68842;-70
2023/03/22 05:43:23;;;;;;;;;;;;;;;1.24;100.00;97246.34;109892;1245;69225;-70
2023/03/22 05:45:53;;;;;;;;;;;;;;;1.31;100.00;97246.93;110053;1245;59689;-70
2023/03/22 05:48:52;;;;;;;;;;;;;;;1.36;100.00;97243.15;109996;1245;60130;-70
2023/03/22 05:51:24;;;;;;;;;;;;;;;1.42;100.00;97245.99;110140;1245;71378;-70
2023/03/22 05:53:54;;;;;;;;;;;;;;;1.51;100.00;97246.30;110079;1246;69220;-70
2023/03/22 05:56:27;;;;;;;;;;;;;;;1.65;100.00;97243.20;109897;1251;69776;-70
2023/03/22 05:59:03;;;;;;;;;;;;;;;1.81;100.00;97246.88;109993;1245;59754;-70
2023/03/22 06:01:32;;;;;;;;;;;;;;;1.91;100.00;97250.24;110015;1245;59736;-70
2023/03/22 06:04:12;;;;;;;;;;;;;;;1.92;100.00;97250.53;110022;1244;71419;-70
2023/03/22 06:07:01;;;;;;;;;;;;;;;1.90;100.00;97259.73;110010;1246;69573;-70
2023/03/22 06:09:49;;;;;;;;;;;;;;;1.80;100.00;97260.46;110040;1245;69181;-69
2023/03/22 06:12:24;;;;;;;;;;;;;;;1.79;100.00;97260.69;109870;1245;60082;-69
2023/03/22 06:15:02;;;;;;;;;;;;;;;1.85;100.00;97263.91;110057;1244;59636;-70
2023/03/22 06:17:46;;;;;;;;;;;;;;;2.02;100.00;97265.57;110073;1245;71612;-70
2023/03/22 06:20:18;;;;;;;;;;;;;;;2.22;100.00;97266.30;110137;1246;70028;-71
2023/03/22 06:22:52;;;;;;;;;;;;;;;2.33;100.00;97269.46;109991;1245;69683;-70
2023/03/22 06:25:22;;;;;;;;;;;;;;;2.38;100.00;97269.61;110042;1245;59694;-70
2023/03/22 06:27:52;;;;;;;;;;;;;;;2.45;100.00;97270.69;110167;1241;59746;-71
2023/03/22 06:30:21;;;;;;;;;;;;;;;2.55;100.00;97273.50;110168;1244;71440;-70
2023/03/22 06:33:09;;;;;;;;;;;;;;;2.71;100.00;97275.91;110162;1245;68605;-70
2023/03/22 06:35:40;;;;;;;;;;;;;;;2.80;100.00;97280.00;110016;1245;68369;-70
2023/03/22 06:38:10;;;;;;;;;;;;;;;2.84;100.00;97285.16;109860;1245;59731;-70
2023/03/22 06:40:40;;;;;;;;;;;;;;;2.95;100.00;97289.85;110153;1244;59691;-70
2023/03/22 06:43:09;;;;;;;;;;;;;;;3.06;100.00;97291.75;109967;1242;71999;-70
2023/03/22 06:45:39;;;;;;;;;;;;;;;3.19;100.00;97295.14;110123;1246;69407;-70
2023/03/22 06:48:09;;;;;;;;;;;;;;;3.27;100.00;97300.29;109984;1245;69241;-71
2023/03/22 06:50:48;;;;;;;;;;;;;;;3.36;100.00;97299.55;109915;1245;59673;-70
2023/03/22 06:53:26;;;;;;;;;;;;;;;3.51;100.00;97300.59;110142;1245;59687;-70
2023/03/22 06:55:55;;;;;;;;;;;;;;;3.64;100.00;97303.10;110107;1245;71960;-69
2023/03/22 06:58:25;;;;;;;;;;;;;;;3.77;100.00;97303.47;110030;1245;69243;-70
2023/03/22 07:00:55;;;;;;;;;;;;;;;3.93;100.00;97307.73;110004;1245;68706;-70
2023/03/22 07:03:24;;;;;;;;;;;;;;;4.07;100.00;97302.92;110103;1243;59711;-70
2023/03/22 07:06:04;;;;;;;;;;;;;;;4.24;100.00;97301.41;110013;1245;59687;-69
2023/03/22 07:08:34;;;;;;;;;;;;;;;4.42;100.00;97304.83;110001;1245;71479;-70
2023/03/22 07:11:04;;;;;;;;;;;;;;;4.59;100.00;97307.10;110205;1245;69228;-70
2023/03/22 07:13:33;;;;;;;;;;;;;;;4.80;100.00;97307.21;110135;1245;69424;-70
2023/03/22 07:16:05;;;;;;;;;;;;;;;5.06;100.00;97309.68;110077;1246;59760;-70
2023/03/22 07:18:47;;;;;;;;;;;;;;;5.25;100.00;97311.42;109879;1245;59678;-69
2023/03/22 07:21:16;;;;;;;;;;;;;;;5.44;100.00;97314.39;110052;1245;71411;-70
2023/03/22 07:23:49;;;;;;;;;;;;;;;5.91;100.00;97312.73;109965;1245;68799;-69
2023/03/22 07:26:19;;;;;;;;;;;;;;;6.50;99.42;97311.98;110044;1245;69869;-70
2023/03/22 07:28:49;;;;;;;;;;;;;;;6.89;95.31;97315.76;110079;1244;59752;-69
2023/03/22 07:31:19;;;;;;;;;;;;;;;7.16;93.91;97314.14;110166;1244;60379;-70
2023/03/22 07:33:53;;;;;;;;;;;;;;;7.51;93.53;97312.13;110097;1243;71036;-72
2023/03/22 07:36:24;;;;;;;;;;;;;;;7.76;90.98;97313.53;110218;1244;69826;-70
2023/03/22 07:38:53;;;;;;;;;;;;;;;7.79;89.69;97309.17;110169;1242;69594;-69
2023/03/22 07:41:42;;;;;;;;;;;;;;;8.18;88.74;97306.48;110178;1245;59693;-70
2023/03/22 07:44:20;;;;;;;;;;;;;;;8.57;88.87;97312.84;110154;1245;59685;-70
2023/03/22 07:47:08;;;;;;;;;;;;;;;8.77;87.09;97316.02;110088;1243;71714;-70
2023/03/22 07:50:00;;;;;;;;;;;;;;;8.87;86.38;97318.84;109944;1246;69255;-70
2023/03/22 07:52:32;;;;;;;;;;;;;;;9.18;89.57;97320.38;109937;1248;69580;-70
2023/03/22 07:55:01;;;;;;;;;;;;;;;9.46;88.98;97326.14;109907;1244;59689;-70
2023/03/22 07:57:31;;;;;;;;;;;;;;;9.80;89.05;97327.05;109781;1246;59800;-70
2023/03/22 08:00:00;;;;;;;;;;;;;;;10.02;85.22;97323.69;109876;1244;70646;-70
2023/03/22 08:02:44;;;;;;;;;;;;;;;10.03;81.69;97322.60;110064;1245;69636;-70
2023/03/22 08:05:32;;;;;;;;;;;;;;;10.18;80.63;97321.64;109770;1254;69635;-70
2023/03/22 08:08:03;;;;;;;;;;;;;;;10.45;80.51;97319.41;110040;1245;59661;-70
2023/03/22 08:10:31;;;;;;;;;;;;;;;10.70;81.46;97322.25;110025;1246;59647;-70
2023/03/22 08:13:01;;;;;;;;;;;;;;;10.84;78.39;97321.52;110077;1244;71363;-70
2023/03/22 08:15:30;;;;;;;;;;;;;;;11.02;77.54;97321.38;110107;1251;68490;-70
2023/03/22 08:17:59;;;;;;;;;;;;;;;11.19;78.55;97324.64;110099;1246;67346;-72
2023/03/22 08:20:32;;;;;;;;;;;;;;;11.49;77.74;97327.54;110060;1246;59640;-71
2023/03/22 08:23:10;;;;;;;;;;;;;;;11.65;75.98;97323.30;110098;1245;59664;-70
2023/03/22 08:26:17;;;;;;;;;;;;;;;12.07;78.03;97327.19;109481;1249;71309;-69
2023/03/22 08:28:46;;;;;;;;;;;;;;;12.23;74.76;97326.59;109577;1248;68559;-69
2023/03/22 08:31:16;;;;;;;;;;;;;;;12.37;71.77;97323.19;109795;1248;69891;-69
2023/03/22 08:33:46;;;;;;;;;;;;;;;12.51;72.11;97319.83;110061;1245;59771;-71
2023/03/22 08:36:16;;;;;;;;;;;;;;;12.64;71.29;97326.95;110118;1246;59679;-71
2023/03/22 08:38:49;;;;;;;;;;;;;;;13.17;71.44;97330.21;109917;1245;71704;-68
2023/03/22 08:41:22;;;;;;;;;;;;;;;13.74;67.08;97328.00;110110;1244;68859;-68
2023/03/22 08:43:51;;;;;;;;;;;;;;;14.02;63.92;97325.48;109935;1247;69905;-68
2023/03/22 08:46:20;;;;;;;;;;;;;;;14.44;64.18;97323.86;110056;1243;59706;-67
2023/03/22 08:48:51;;;;;;;;;;;;;;;14.82;64.05;97329.20;110008;1243;59714;-67
2023/03/22 08:51:27;;;;;;;;;;;;;;;15.09;61.24;97328.84;109986;1245;71385;-67
2023/03/22 08:54:12;;;;;;;;;;;;;;;15.68;59.56;97327.91;109963;1246;69816;-65
2023/03/22 08:56:54;;;;;;;;;;;;;;;16.56;59.46;97324.63;109966;1245;68315;-67
2023/03/22 08:59:51;;;;;;;;;;;;;;;17.30;53.55;97324.34;109917;1245;59666;-67
2023/03/22 09:02:38;;;;;;;;;;;;;;;17.94;51.60;97319.77;109796;1246;59698;-67
2023/03/22 09:05:08;;;;;;;;;;;;;;;18.81;52.03;97317.38;110066;1245;71777;-68
2023/03/22 09:07:37;;;;;;;;;;;;;;;19.37;48.68;97314.48;109877;1247;69894;-67
2023/03/22 09:10:16;;;;;;;;;;;;;;;20.39;50.08;97312.77;110050;1245;69271;-68
2023/03/22 09:12:47;;;;;;;;;;;;;;;20.88;47.90;97320.58;109813;1245;59683;-68
2023/03/22 09:15:16;;;;;;;;;;;;;;;20.90;44.56;97318.23;110133;1242;59747;-67
2023/03/22 09:17:48;;;;;;;;;;;;;;;21.15;46.07;97317.76;109759;1245;71150;-67
2023/03/22 09:20:17;;;;;;;;;;;;;;;21.16;44.71;97318.30;109833;1245;69789;-66
2023/03/22 09:22:46;;;;;;;;;;;;;;;20.87;44.55;97314.87;110097;1245;70044;-67
2023/03/22 09:25:16;;;;;;;;;;;;;;;20.62;44.35;97312.23;110087;1241;59675;-66
2023/03/22 09:27:47;;;;;;;;;;;;;;;20.73;44.29;97308.88;110085;1251;59688;-67
2023/03/22 09:30:16;;;;;;;;;;;;;;;20.98;44.11;97312.31;110111;1245;71966;-67
2023/03/22 09:32:44;;;;;;;;;;;;;;;21.17;43.11;97310.79;110010;1247;69647;-68
2023/03/22 09:35:15;;;;;;;;;;;;;;;21.60;43.20;97306.88;110166;1245;69840;-68
2023/03/22 09:38:05;;;;;;;;;;;;;;;21.68;41.26;97298.17;110044;1246;59780;-67
2023/03/22 09:40:36;;;;;;;;;;;;;;;21.97;40.90;97298.05;109968;1245;59606;-67
2023/03/22 09:43:06;;;;;;;;;;;;;;;21.99;40.42;97298.45;109941;1246;71396;-67
2023/03/22 09:45:40;;;;;;;;;;;;;;;22.11;40.03;97293.46;110102;1245;70275;-67
2023/03/22 09:48:20;;;;;;;;;;;;;;;21.74;40.05;97294.64;110100;1246;69437;-68
2023/03/22 09:50:51;;;;;;;;;;;;;;;21.84;40.19;97292.16;110109;1245;59737;-67
2023/03/22 09:53:22;;;;;;;;;;;;;;;22.22;39.94;97290.95;110143;1245;59763;-67
2023/03/22 09:55:53;;;;;;;;;;;;;;;22.92;38.99;97283.35;110083;1245;71954;-67
2023/03/22 09:58:25;;;;;;;;;;;;;;;23.24;37.84;97282.33;110075;1245;69713;-67
2023/03/22 10:00:53;;;;;;;;;;;;;;;23.23;37.81;97282.39;110134;1241;69316;-67
2023/03/22 10:03:28;;;;;;;;;;;;;;;23.20;36.66;97278.61;110109;1246;59681;-67
2023/03/22 10:06:17;;;;;;;;;;;;;;;23.64;36.39;97279.93;110093;1251;59644;-67
2023/03/22 10:08:58;;;;;;;;;;;;;;;23.79;34.11;97279.89;110098;1245;71415;-67
2023/03/22 10:11:33;;;;;;;;;;;;;;;23.76;33.50;97279.77;109802;1242;68549;-67
2023/03/22 10:14:19;;;;;;;;;;;;;;;23.59;32.79;97281.58;110048;1247;69436;-66
2023/03/22 10:16:50;;;;;;;;;;;;;;;23.21;33.45;97278.25;110147;1246;59691;-66
2023/03/22 10:19:22;;;;;;;;;;;;;;;23.08;34.28;97275.05;110154;1245;59751;-66
2023/03/22 10:21:53;;;;;;;;;;;;;;;23.05;34.37;97275.47;110120;1245;69851;-67
2023/03/22 10:24:27;;;;;;;;;;;;;;;22.97;34.06;97274.73;110110;1242;68659;-66
2023/03/22 10:26:56;;;;;;;;;;;;;;;22.59;34.34;97279.60;110103;1246;69862;-66
2023/03/22 10:29:26;;;;;;;;;;;;;;;22.47;34.52;97278.48;110119;1245;59743;-68
2023/03/22 10:31:55;;;;;;;;;;;;;;;22.39;34.43;97273.42;110170;1244;59718;-68
2023/03/22 10:34:35;;;;;;;;;;;;;;;22.27;33.84;97272.48;109759;1245;635076;-66
2023/03/22 10:37:06;;;;;;;;;;;;;;;22.35;33.80;97271.38;110111;1245;69831;-66
2023/03/22 10:39:37;;;;;;;;;;;;;;;22.20;33.58;97267.20;110125;1248;69849;-66
2023/03/22 10:42:13;;;;;;;;;;;;;;;21.92;33.49;97265.69;110116;1241;59681;-66
2023/03/22 10:44:47;;;;;;;;;;;;;;;21.96;33.57;97262.92;110148;1242;59693;-67
2023/03/22 10:47:18;;;;;;;;;;;;;;;21.71;34.28;97265.83;110116;1246;71383;-67
2023/03/22 10:49:53;;;;;;;;;;;;;;;22.26;34.25;97260.09;110177;1241;69860;-67
2023/03/22 10:52:33;;;;;;;;;;;;;;;22.52;33.10;97258.34;110095;1245;68531;-66
2023/03/22 10:55:03;;;;;;;;;;;;;;;22.80;32.66;97255.29;110132;1245;59677;-68
2023/03/22 10:57:32;;;;;;;;;;;;;;;23.07;32.03;97249.70;110105;1244;59773;-67
2023/03/22 11:00:07;;;;;;;;;;;;;;;23.19;31.82;97248.95;110097;1243;71973;-67
2023/03/22 11:02:43;;;;;;;;;;;;;;;23.27;31.50;97245.52;110110;1244;70030;-67
2023/03/22 11:05:19;;;;;;;;;;;;;;;23.00;31.12;97246.15;110085;1245;69883;-67
2023/03/22 11:07:48;;;;;;;;;;;;;;;23.21;30.81;97237.86;110116;1245;59688;-67
2023/03/22 11:10:21;;;;;;;;;;;;;;;23.15;30.86;97236.50;110147;1245;59690;-67
2023/03/22 11:12:54;;;;;;;;;;;;;;;22.99;31.04;97234.42;110108;1251;71983;-67
2023/03/22 11:15:25;;;;;;;;;;;;;;;22.97;30.55;97234.56;110099;1242;68096;-67
2023/03/22 11:17:59;;;;;;;;;;;;;;;23.01;30.80;97230.85;110103;1244;69305;-67
2023/03/22 11:20:28;;;;;;;;;;;;;;;22.89;31.42;97227.89;110065;1241;59674;-67
2023/03/22 11:23:05;;;;;;;;;;;;;;;23.82;30.46;97223.53;110110;1244;59633;-67
2023/03/22 11:25:37;;;;;;;;;;;;;;;23.37;30.42;97224.60;110105;1245;71816;-66
2023/03/22 11:28:08;;;;;;;;;;;;;;;21.60;32.35;97222.83;110094;1245;69090;-67
2023/03/22 11:30:38;;;;;;;;;;;;;;;20.11;35.24;97219.02;110083;1244;69284;-67
2023/03/22 11:33:07;;;;;;;;;;;;;;;19.94;36.66;97216.86;110082;1246;59760;-67
2023/03/22 11:35:37;;;;;;;;;;;;;;;20.57;36.44;97215.41;110095;1245;59699;-67
2023/03/22 11:38:21;;;;;;;;;;;;;;;20.57;37.51;97213.73;110136;1246;71844;-67
2023/03/22 11:40:58;;;;;;;;;;;;;;;21.46;35.43;97208.30;110096;1244;69193;-67
2023/03/22 11:43:35;;;;;;;;;;;;;;;21.66;34.85;97207.22;110094;1242;69871;-68
2023/03/22 11:46:06;;;;;;;;;;;;;;;21.27;34.63;97211.98;110080;1245;59747;-68
2023/03/22 11:48:35;;;;;;;;;;;;;;;20.68;35.86;97210.31;110130;1244;59654;-68
2023/03/22 11:51:06;;;;;;;;;;;;;;;19.93;38.59;97205.43;110108;1242;70786;-66
2023/03/22 11:53:37;;;;;;;;;;;;;;;19.72;38.42;97203.59;110105;1244;69142;-68
2023/03/22 11:56:08;;;;;;;;;;;;;;;19.60;37.31;97201.98;110097;1245;69884;-68
2023/03/22 11:58:36;;;;;;;;;;;;;;;19.48;37.39;97199.73;110106;1245;59741;-67
2023/03/22 12:01:08;;;;;;;;;;;;;;;19.10;37.77;97197.98;110126;1245;59647;-66
2023/03/22 12:03:39;;;;;;;;;;;;;;;19.01;39.62;97194.98;110099;1241;71193;-67
2023/03/22 12:06:19;;;;;;;;;;;;;;;19.38;39.43;97191.23;110112;1247;69869;-67
2023/03/22 12:08:52;;;;;;;;;;;;;;;19.49;38.38;97190.16;110095;1244;69948;-66
2023/03/22 12:11:35;;;;;;;;;;;;;;;19.50;37.97;97189.36;110116;1246;59737;-68
2023/03/22 12:14:08;;;;;;;;;;;;;;;19.45;37.96;97186.69;110108;1243;59665;-67
2023/03/22 12:16:45;;;;;;;;;;;;;;;19.85;37.90;97184.67;110156;1245;70657;-68
2023/03/22 12:19:22;;;;;;;;;;;;;;;19.96;37.53;97181.64;110167;1244;69308;-67
2023/03/22 12:21:51;;;;;;;;;;;;;;;19.73;37.30;97182.17;110017;1245;69883;-67
2023/03/22 12:24:30;;;;;;;;;;;;;;;19.24;38.00;97181.73;110111;1242;59699;-67
2023/03/22 12:27:03;;;;;;;;;;;;;;;18.94;38.43;97183.92;110065;1244;59700;-67
2023/03/22 12:29:32;;;;;;;;;;;;;;;18.81;39.66;97182.13;110165;1245;71956;-66
2023/03/22 12:32:05;;;;;;;;;;;;;;;18.80;38.88;97174.84;110076;1244;69393;-67
2023/03/22 12:34:40;;;;;;;;;;;;;;;18.69;38.53;97177.10;110101;1241;69302;-67
2023/03/22 12:37:13;;;;;;;;;;;;;;;18.46;38.94;97178.26;110123;1241;59749;-67
2023/03/22 12:39:46;;;;;;;;;;;;;;;18.19;39.13;97172.52;110117;1241;59681;-67
2023/03/22 12:42:20;;;;;;;;;;;;;;;17.64;40.31;97171.92;110121;1241;71346;-67
2023/03/22 12:44:51;;;;;;;;;;;;;;;17.43;41.36;97166.39;110082;1241;69655;-67
2023/03/22 12:47:40;;;;;;;;;;;;;;;17.33;41.24;97168.69;110101;1245;68642;-66
2023/03/22 12:50:18;;;;;;;;;;;;;;;17.67;41.30;97167.02;110082;1246;59754;-66
2023/03/22 12:52:48;;;;;;;;;;;;;;;18.64;40.30;97164.05;110257;1241;59741;-67
2023/03/22 12:55:29;;;;;;;;;;;;;;;19.63;39.29;97159.70;110106;1244;71971;-66
2023/03/22 12:57:58;;;;;;;;;;;;;;;20.51;37.14;97158.23;110082;1245;69335;-66
2023/03/22 13:00:43;;;;;;;;;;;;;;;20.99;36.31;97155.54;110090;1244;69757;-67
2023/03/22 13:03:15;;;;;;;;;;;;;;;21.92;34.90;97149.23;110132;1244;59782;-66
2023/03/22 13:05:44;;;;;;;;;;;;;;;22.72;34.69;97147.09;110164;1242;59742;-68
2023/03/22 13:08:21;;;;;;;;;;;;;;;23.29;32.80;97142.47;110109;1244;71400;-66
2023/03/22 13:11:04;;;;;;;;;;;;;;;23.81;31.39;97144.00;110185;1244;68344;-68
2023/03/22 13:13:39;;;;;;;;;;;;;;;24.48;30.71;97141.64;110166;1245;69910;-68
2023/03/22 13:16:08;;;;;;;;;;;;;;;24.54;29.35;97142.52;110135;1245;59702;-67